createdAt,value
2022-08-28T00:00:34.815Z,19.00
2022-08-28T00:15:34.505Z,18.85
2022-08-28T00:30:33.404Z,18.95
2022-08-28T00:45:38.716Z,18.80
2022-08-28T01:00:33.611Z,18.77
2022-08-28T01:15:23.429Z,18.75
2022-08-28T01:30:23.450Z,18.70
2022-08-28T01:45:23.296Z,18.30
2022-08-28T02:00:24.150Z,18.70
2022-08-28T02:15:23.733Z,18.60
2022-08-28T02:30:23.540Z,18.50
2022-08-28T02:45:23.664Z,18.40
2022-08-28T03:00:23.805Z,18.52
2022-08-28T03:15:23.728Z,18.50
2022-08-28T03:30:23.505Z,18.45
2022-08-28T03:45:23.508Z,18.45
2022-08-28T04:00:23.607Z,18.55
2022-08-28T04:15:23.827Z,18.42
2022-08-28T04:30:23.677Z,18.40
2022-08-28T04:45:23.823Z,18.35
2022-08-28T05:00:23.800Z,18.40
2022-08-28T05:15:23.673Z,18.30
2022-08-28T05:30:23.899Z,18.47
2022-08-28T05:45:23.783Z,18.52
2022-08-28T06:00:27.959Z,18.62
2022-08-28T06:15:23.979Z,18.60
2022-08-28T06:30:23.968Z,18.92
2022-08-28T06:45:23.827Z,19.10
2022-08-28T07:00:28.836Z,19.25
2022-08-28T07:15:24.219Z,19.30
2022-08-28T07:30:24.020Z,19.67
2022-08-28T07:45:24.059Z,19.75
2022-08-28T08:00:25.011Z,19.88
2022-08-28T08:15:25.676Z,19.95
2022-08-28T08:30:24.104Z,20.28
2022-08-28T08:45:24.171Z,20.90
2022-08-28T09:00:26.052Z,22.20
2022-08-28T09:15:24.118Z,21.83
2022-08-28T09:30:24.300Z,22.17
2022-08-28T09:45:23.943Z,22.45
2022-08-28T10:00:24.062Z,22.75
2022-08-28T10:15:24.133Z,23.05
2022-08-28T10:30:24.209Z,23.23
2022-08-28T10:45:33.177Z,23.00
2022-08-28T11:00:33.523Z,23.25
2022-08-28T11:15:23.213Z,23.52
2022-08-28T11:30:23.316Z,23.80
2022-08-28T11:45:23.334Z,23.85
2022-08-28T12:00:27.365Z,24.33
2022-08-28T12:15:23.220Z,25.00
2022-08-28T12:30:23.309Z,24.85
2022-08-28T12:45:23.292Z,24.73
2022-08-28T13:00:26.283Z,24.80
2022-08-28T13:15:24.348Z,24.97
2022-08-28T13:30:23.665Z,25.10
2022-08-28T13:45:23.639Z,25.40
2022-08-28T14:00:29.645Z,25.45
2022-08-28T14:15:23.833Z,25.58
2022-08-28T14:30:23.984Z,26.10
2022-08-28T14:43:05.825Z,26.50
2022-08-28T14:57:48.863Z,25.85
2022-08-28T15:12:48.537Z,26.17
2022-08-28T15:15:23.315Z,26.75
2022-08-28T15:17:11.843Z,27.50
2022-08-28T15:32:00.421Z,26.57
2022-08-28T15:46:59.663Z,26.55
2022-08-28T16:01:59.713Z,26.75
2022-08-28T16:15:23.903Z,26.90
2022-08-28T16:30:24.514Z,26.60
2022-08-28T16:45:23.979Z,26.58
2022-08-28T17:00:24.197Z,26.12
2022-08-28T17:02:33.780Z,26.80
2022-08-28T17:15:23.754Z,26.03
2022-08-28T17:30:23.783Z,25.20
2022-08-28T17:45:33.114Z,24.48
2022-08-28T18:00:33.035Z,23.72
2022-08-28T18:15:23.108Z,23.40
2022-08-28T18:30:23.262Z,23.20
2022-08-28T18:45:23.117Z,22.58
2022-08-28T19:00:23.856Z,22.17
2022-08-28T19:15:23.416Z,21.20
2022-08-28T19:30:23.264Z,21.77
2022-08-28T19:45:23.505Z,21.40
2022-08-28T20:00:24.148Z,21.02
2022-08-28T20:15:23.348Z,20.90
2022-08-28T20:30:24.107Z,20.65
2022-08-28T20:45:23.916Z,20.52
2022-08-28T21:00:25.864Z,20.33
2022-08-28T21:15:23.592Z,20.33
2022-08-28T21:30:23.381Z,20.23
2022-08-28T21:45:23.529Z,20.05
2022-08-28T22:00:34.529Z,21.00
2022-08-28T22:15:23.340Z,19.20
2022-08-28T22:30:23.534Z,19.40
2022-08-28T22:45:23.364Z,19.40
2022-08-28T23:00:35.659Z,18.97
2022-08-28T23:15:23.831Z,18.90
2022-08-28T23:30:31.110Z,18.73
2022-08-28T23:45:23.631Z,18.48
